Estación meteorológica de Calldetenes (Osona, Plana de Vic)

Consulta los datos en tiempo real de la estación meteorológica de Calldetenes





Hora UTC 08:20
Temperatura 22.4 ºC
Suelo 15 cm 19.9 ºC
Humedad 66.0 %
Presión 1023.9 hPa
Pluja 0.0 mm
Velocidad viento 3.1 km/h
Dirección viento NE
Radiación solar 402.9 W/m²

Webcam

Datos diarios 2026-09-05



Hora UTC (invierno +1h; verano +2h)
Temperatura (ºC) Humedad (%) Presión (hPa) Velocidad viento (km/h) Precipitación (mm) Radiación solar (W/m²)
Hora UTC Aire Suelo 15 cm Humedad Presión Vel. Dir. Vel. Max Dir. Intent. máx 5 min. Rad. Sol.
00:05 20.1 20.1 83.5 1022.7 5.6 ESE 5.6 ESE 0.0 0.1
00:10 20.3 20.1 82.0 1022.7 4.5 ESE 7.4 ESE 0.0 0.1
00:15 19.8 20.0 83.3 1022.7 5.3 ESE 7.4 ESE 0.0 0.1
00:20 19.7 19.8 84.1 1022.7 5.2 ESE 7.1 ESE 0.0 0.1
00:25 19.7 19.7 84.1 1022.7 2.6 SE 5.3 SE 0.0 0.1
00:30 19.6 19.7 84.3 1022.7 2.4 SE 5.6 SE 0.0 0.1
00:35 19.6 19.6 84.3 1022.7 0.3 SSE 1.8 SSE 0.0 0.1
00:40 19.4 19.5 85.3 1022.7 0.0 S 1.1 S 0.0 0.1
00:45 19.4 19.4 85.3 1022.7 0.1 SE 1.4 SE 0.0 0.1
00:50 19.3 19.3 84.5 1022.7 3.7 ESE 6.0 ESE 0.0 0.1
00:55 19.2 19.3 85.9 1022.6 5.1 ESE 6.0 ESE 0.0 0.1
01:00 19.3 19.2 84.3 1022.6 2.0 ESE 5.3 ESE 0.0 0.1
01:05 19.0 19.1 85.4 1022.6 3.1 SE 5.3 SE 0.0 0.1
01:10 19.0 19.0 85.7 1022.6 0.4 SSE 2.5 S 0.0 0.1
01:15 19.0 18.9 86.6 1022.7 0.0 NNE 0.0 S 0.0 0.1
01:20 19.2 19.0 85.5 1022.7 0.2 ESE 1.8 ESE 0.0 0.1
01:25 19.1 19.0 84.5 1022.7 0.0 ESE 1.1 ESE 0.0 0.1
01:30 19.2 19.0 84.4 1022.7 3.5 SE 5.3 ESE 0.0 0.1
01:35 19.1 18.9 82.1 1022.7 0.6 SE 2.5 SSE 0.0 0.1
01:40 19.0 18.8 84.3 1022.7 2.9 SE 5.3 ESE 0.0 0.1
01:45 19.0 18.8 83.7 1022.7 2.4 SE 5.6 ESE 0.0 0.1
01:50 18.9 18.8 83.4 1022.7 0.2 SSE 1.4 SSE 0.0 0.1
01:55 18.8 18.6 83.9 1022.7 0.0 NNE 0.0 SSE 0.0 0.1
02:00 18.6 18.5 84.6 1022.7 1.0 ESE 4.2 ESE 0.0 0.1
02:05 18.6 18.4 84.7 1022.8 3.5 ESE 4.9 ESE 0.0 0.1
02:10 18.6 18.4 83.5 1022.8 4.3 ESE 6.4 ESE 0.0 0.1
02:15 18.4 18.3 83.6 1022.8 5.4 ESE 7.1 ESE 0.0 0.1
02:20 18.3 18.2 84.7 1022.8 4.7 ESE 6.0 ESE 0.0 0.1
02:25 18.2 18.0 85.0 1022.6 5.2 ESE 7.1 ESE 0.0 0.1
02:30 18.2 18.0 85.2 1022.6 3.7 SE 5.6 ESE 0.0 0.1
02:35 18.2 18.1 84.8 1022.7 1.1 SE 2.5 SE 0.0 0.1
02:40 18.2 18.0 85.7 1022.7 0.0 NNE 0.0 SSW 0.0 0.1
02:45 18.3 18.1 85.1 1022.7 0.6 SE 1.8 SE 0.0 0.1
02:50 18.3 18.1 85.0 1022.7 2.0 SSE 2.8 SSE 0.0 0.1
02:55 18.3 18.1 85.0 1022.7 2.3 SSW 3.5 SSW 0.0 0.1
03:00 18.4 18.0 86.1 1022.7 3.5 SW 5.6 SSW 0.0 0.1
03:05 18.5 18.0 85.0 1022.7 3.2 S 6.0 SSE 0.0 0.1
03:10 18.6 18.1 83.1 1022.7 1.5 S 6.0 S 0.0 0.1
03:15 18.2 17.9 84.8 1022.7 1.9 SSE 3.2 SE 0.0 0.1
03:20 18.1 17.8 85.6 1022.7 2.3 SSW 3.9 SSW 0.0 0.1
03:25 18.2 17.7 86.2 1022.8 2.6 SSE 4.2 SSE 0.0 0.1
03:30 18.2 17.8 85.3 1022.8 3.0 SE 4.9 E 0.0 0.1
03:35 18.2 17.8 85.4 1022.8 4.1 E 4.9 E 0.0 0.1
03:40 18.2 17.9 84.8 1022.8 2.5 ESE 3.9 E 0.0 0.1
03:45 18.1 17.9 84.7 1022.9 2.5 SE 3.5 ESE 0.0 0.1
03:50 18.1 17.8 85.4 1022.9 4.3 ESE 6.7 ESE 0.0 0.1
03:55 17.7 17.7 84.8 1022.8 2.0 SE 4.6 ESE 0.0 0.1
04:00 17.6 17.6 86.6 1022.8 0.1 SE 1.4 SE 0.0 0.1
04:05 17.5 17.5 87.1 1022.8 1.6 E 3.5 ESE 0.0 0.1
04:10 17.6 17.5 87.5 1022.8 3.2 ESE 4.9 ESE 0.0 0.1
04:15 17.8 17.5 86.5 1022.8 2.1 ESE 4.9 ESE 0.0 0.1
04:20 17.5 17.4 85.4 1022.8 1.5 ESE 3.9 ESE 0.0 0.1
04:25 17.3 17.2 86.7 1022.8 1.1 ESE 2.5 SE 0.0 0.1
04:30 17.2 17.1 87.4 1022.8 3.2 ESE 4.9 ESE 0.0 0.1
04:35 17.0 17.0 86.5 1022.8 2.3 ESE 3.9 ESE 0.0 0.1
04:40 16.8 16.9 87.2 1022.8 1.2 ESE 3.2 SE 0.0 0.1
04:45 16.7 16.7 88.7 1022.9 2.1 ESE 3.2 ESE 0.0 0.1
04:50 16.8 16.7 88.4 1022.9 3.3 ESE 6.4 ESE 0.0 0.1
04:55 16.8 16.7 89.0 1023.0 5.3 ESE 6.4 ESE 0.0 0.1
05:00 16.9 16.8 87.9 1023.0 4.3 ESE 6.0 ESE 0.0 0.1
05:05 16.7 16.7 87.3 1023.0 0.9 SSE 3.5 SE 0.0 0.3
05:10 16.7 16.5 88.5 1023.0 1.0 S 2.5 S 0.0 0.6
05:15 16.7 16.5 89.4 1023.1 0.9 NE 2.8 E 0.0 1.2
05:20 16.8 16.6 89.1 1023.1 1.9 E 3.2 E 0.0 2.0
05:25 16.8 16.7 88.0 1023.1 1.0 E 2.5 ENE 0.0 3.0
05:30 16.8 16.8 88.0 1023.1 1.6 SE 2.5 SE 0.0 4.8
05:35 16.8 16.8 88.3 1023.1 1.6 S 2.8 SE 0.0 8.0
05:40 16.9 16.8 88.5 1023.1 1.4 S 2.5 S 0.0 12.0
05:45 17.0 16.8 88.1 1023.2 0.0 NNE 0.0 SSE 0.0 15.8
05:50 17.0 16.9 88.1 1023.2 0.6 SSW 2.1 S 0.0 19.8
05:55 17.2 16.9 87.4 1023.3 0.1 W 1.4 WNW 0.0 23.7
06:00 17.3 17.0 86.8 1023.3 2.0 E 3.5 E 0.0 26.4
06:05 17.4 17.2 87.0 1023.3 2.1 ESE 3.2 E 0.0 29.2
06:10 17.6 17.3 89.0 1023.3 1.3 SE 2.8 SE 0.0 32.3
06:15 17.4 17.1 88.6 1023.4 0.0 ESE 1.1 ESE 0.0 35.4
06:20 17.2 16.7 88.7 1023.4 1.0 SE 2.8 SE 0.0 37.4
06:25 17.3 16.5 88.9 1023.5 1.0 SE 2.1 SE 0.0 47.4
06:30 17.4 16.4 88.5 1023.5 0.0 SE 1.1 SE 0.0 74.2
06:35 17.6 16.5 88.7 1023.5 0.0 NNE 0.0 SE 0.0 98.2
06:40 17.8 16.6 87.9 1023.5 0.0 NNE 0.0 SE 0.0 117.8
06:45 18.0 16.8 87.0 1023.6 0.0 NNE 0.0 SE 0.0 129.4
06:50 18.4 17.1 87.1 1023.6 0.2 ENE 1.4 ENE 0.0 145.3
06:55 18.8 17.4 85.1 1023.7 1.0 ENE 2.5 ENE 0.0 158.5
07:00 19.1 17.7 83.4 1023.7 2.1 ENE 3.5 ENE 0.0 172.9
07:05 19.4 17.9 81.7 1023.8 1.1 ENE 3.5 E 0.0 188.1
07:10 19.6 18.1 81.0 1023.8 0.9 ENE 3.5 ENE 0.0 202.1
07:15 19.9 18.2 76.5 1023.8 2.6 NE 4.2 NE 0.0 216.9
07:20 20.2 18.4 73.6 1023.8 1.4 N 3.2 ENE 0.0 231.2
07:25 20.4 18.4 73.1 1023.8 1.9 NW 3.2 WNW 0.0 246.0
07:30 20.6 18.5 71.8 1023.8 1.2 NW 3.5 NW 0.0 259.8
07:35 20.8 18.6 72.1 1023.9 2.8 NNW 7.1 NE 0.0 272.0
07:40 20.9 18.7 70.2 1023.9 3.8 NNE 7.1 NE 0.0 287.2
07:45 21.1 18.9 69.7 1023.9 4.4 N 8.1 N 0.0 301.2
07:50 21.3 19.0 69.2 1023.9 3.1 N 5.6 NNE 0.0 318.0
07:55 21.5 19.2 68.4 1023.9 2.4 ENE 4.9 NE 0.0 333.5
08:00 21.7 19.3 67.5 1023.9 1.1 N 5.6 NNE 0.0 348.6
08:05 21.8 19.5 67.5 1023.9 0.9 N 3.2 NNW 0.0 362.2
08:10 22.0 19.6 66.3 1023.9 1.8 NNE 5.6 NNE 0.0 375.3
08:15 22.2 19.8 65.9 1023.9 2.3 NE 6.0 ENE 0.0 388.0
08:20 22.4 19.9 66.0 1023.9 3.1 NE 6.4 NE 0.0 402.9
Máxima 22.4 20.1 89.4 1023.9 5.6 ESE 8.1 N 0.0 402.9
Mínima 16.7 16.4 65.9 1022.6
Total 0.0